createdAt,value
2022-11-29T00:01:34.012Z,102.37
2022-11-29T00:04:01.305Z,97.73
2022-11-29T00:06:33.888Z,112.67
2022-11-29T00:09:06.442Z,108.77
2022-11-29T00:11:55.057Z,116.33
2022-11-29T00:14:23.671Z,125.43
2022-11-29T00:16:56.008Z,108.97
2022-11-29T00:19:22.996Z,96.97
2022-11-29T00:21:49.975Z,79.70
2022-11-29T00:24:17.241Z,62.10
2022-11-29T00:26:44.128Z,54.93
2022-11-29T00:29:13.021Z,57.93
2022-11-29T00:31:40.334Z,68.67
2022-11-29T00:34:07.770Z,76.73
2022-11-29T00:36:35.691Z,80.27
2022-11-29T00:39:04.425Z,79.37
2022-11-29T00:41:31.944Z,83.53
2022-11-29T00:43:58.828Z,79.07
2022-11-29T00:46:25.696Z,79.77
2022-11-29T00:48:52.575Z,78.10
2022-11-29T00:51:19.472Z,57.07
2022-11-29T00:53:46.310Z,71.93
2022-11-29T00:56:13.182Z,50.47
2022-11-29T00:58:40.209Z,69.03
2022-11-29T01:01:07.077Z,74.30
2022-11-29T01:03:34.383Z,65.57
2022-11-29T01:06:07.404Z,52.37
2022-11-29T01:08:34.547Z,60.50
2022-11-29T01:11:22.966Z,60.90
2022-11-29T01:13:51.171Z,58.27
2022-11-29T01:16:18.538Z,63.63
2022-11-29T01:18:45.515Z,64.60
2022-11-29T01:21:18.531Z,60.73
2022-11-29T01:23:46.025Z,69.80
2022-11-29T01:26:18.640Z,54.33
2022-11-29T01:28:47.864Z,52.93
2022-11-29T01:31:21.249Z,52.07
2022-11-29T01:33:48.155Z,63.97
2022-11-29T01:36:15.463Z,68.00
2022-11-29T01:38:45.280Z,59.53
2022-11-29T01:41:18.452Z,59.73
2022-11-29T01:43:59.453Z,61.00
2022-11-29T01:46:37.319Z,56.63
2022-11-29T01:49:17.673Z,53.43
2022-11-29T01:51:49.541Z,52.77
2022-11-29T01:54:16.571Z,57.47
2022-11-29T01:56:45.864Z,57.63
2022-11-29T01:59:15.807Z,63.43
2022-11-29T02:01:42.817Z,69.37
2022-11-29T02:04:09.974Z,79.00
2022-11-29T02:06:37.542Z,71.20
2022-11-29T02:09:04.866Z,65.13
2022-11-29T02:11:57.605Z,73.97
2022-11-29T02:14:33.210Z,76.63
2022-11-29T02:17:15.039Z,74.27
2022-11-29T02:20:11.880Z,70.03
2022-11-29T02:22:43.261Z,72.93
2022-11-29T02:25:28.130Z,68.80
2022-11-29T02:28:30.490Z,64.73
2022-11-29T02:31:21.471Z,64.77
2022-11-29T02:34:07.740Z,61.20
2022-11-29T02:36:54.783Z,59.60
2022-11-29T02:39:30.331Z,57.17
2022-11-29T02:42:18.553Z,54.27
2022-11-29T02:45:11.754Z,52.07
2022-11-29T02:48:06.261Z,45.77
2022-11-29T02:50:46.787Z,44.27
2022-11-29T02:53:51.416Z,48.30
2022-11-29T02:56:37.782Z,52.40
2022-11-29T02:59:15.952Z,43.70
2022-11-29T03:02:04.484Z,46.47
2022-11-29T03:04:31.280Z,45.40
2022-11-29T03:09:56.353Z,44.85
2022-11-29T03:12:35.707Z,39.33
2022-11-29T03:15:32.979Z,45.87
2022-11-29T03:18:37.599Z,44.33
2022-11-29T03:21:36.947Z,43.03
2022-11-29T03:24:19.630Z,41.17
2022-11-29T03:26:51.629Z,38.83
2022-11-29T03:29:40.783Z,49.03
2022-11-29T03:32:48.400Z,47.07
2022-11-29T03:35:20.839Z,43.87
2022-11-29T03:38:02.762Z,42.73
2022-11-29T03:40:51.755Z,45.40
2022-11-29T03:43:26.670Z,42.70
2022-11-29T03:46:02.349Z,49.03
2022-11-29T03:48:37.759Z,41.70
2022-11-29T03:51:14.542Z,40.60
2022-11-29T03:54:03.673Z,44.83
2022-11-29T03:56:36.669Z,45.93
2022-11-29T03:59:08.219Z,42.17
2022-11-29T04:02:08.592Z,42.70
2022-11-29T04:04:53.899Z,51.90
2022-11-29T04:07:26.751Z,43.80
2022-11-29T04:10:16.459Z,42.53
2022-11-29T04:12:49.367Z,43.20
2022-11-29T04:15:28.181Z,45.87
2022-11-29T04:18:13.738Z,47.47
2022-11-29T04:20:59.206Z,49.67
2022-11-29T04:24:01.512Z,44.67
2022-11-29T04:26:48.293Z,43.43
2022-11-29T04:29:19.293Z,49.90
2022-11-29T04:31:52.150Z,48.67
2022-11-29T04:34:41.110Z,48.50
2022-11-29T04:37:50.213Z,50.37
2022-11-29T04:40:32.376Z,60.87
2022-11-29T04:43:38.578Z,51.83
2022-11-29T04:46:26.390Z,52.80
2022-11-29T04:51:36.915Z,52.50
2022-11-29T04:54:16.151Z,59.67
2022-11-29T04:56:51.451Z,48.00
2022-11-29T04:59:30.584Z,52.63
2022-11-29T05:02:30.337Z,51.70
2022-11-29T05:05:25.075Z,58.67
2022-11-29T05:08:17.502Z,49.07
2022-11-29T05:11:23.460Z,46.07
2022-11-29T05:14:25.263Z,57.38
2022-11-29T05:17:24.391Z,59.33
2022-11-29T05:20:05.865Z,51.00
2022-11-29T05:22:57.143Z,64.80
2022-11-29T05:25:40.225Z,58.57
2022-11-29T05:28:21.092Z,62.63
2022-11-29T05:31:03.597Z,60.20
2022-11-29T05:33:39.223Z,55.07
2022-11-29T05:36:12.269Z,60.77
2022-11-29T05:38:59.850Z,61.57
2022-11-29T05:41:35.864Z,75.80
2022-11-29T05:44:14.366Z,72.10
2022-11-29T05:46:44.313Z,61.50
2022-11-29T05:49:29.954Z,60.07
2022-11-29T05:52:32.324Z,59.40
2022-11-29T05:55:14.248Z,55.53
2022-11-29T05:57:59.002Z,57.17
2022-11-29T06:00:32.041Z,58.23
2022-11-29T06:03:36.696Z,60.33
2022-11-29T06:06:15.180Z,56.03
2022-11-29T06:09:06.360Z,51.10
2022-11-29T06:11:42.276Z,60.30
2022-11-29T06:14:22.754Z,44.67
2022-11-29T06:17:25.615Z,51.97
2022-11-29T06:20:18.619Z,53.97
2022-11-29T06:22:57.583Z,49.00
2022-11-29T06:25:30.862Z,54.40
2022-11-29T06:28:12.378Z,62.10
2022-11-29T06:31:05.575Z,55.50
2022-11-29T06:33:45.255Z,47.67
2022-11-29T06:36:23.163Z,49.37
2022-11-29T06:38:50.222Z,70.77
2022-11-29T06:41:20.991Z,45.30
2022-11-29T06:43:48.387Z,67.03
2022-11-29T06:46:47.077Z,60.50
2022-11-29T06:49:23.223Z,46.73
2022-11-29T06:52:21.681Z,62.13
2022-11-29T06:57:40.331Z,63.87
2022-11-29T07:00:22.339Z,73.97
2022-11-29T07:02:57.772Z,62.33
2022-11-29T07:05:24.642Z,64.47
2022-11-29T07:07:56.999Z,65.57
2022-11-29T07:10:24.748Z,60.07
2022-11-29T07:12:52.038Z,69.43
2022-11-29T07:15:21.776Z,74.77
2022-11-29T07:18:13.259Z,68.13
2022-11-29T07:21:06.459Z,67.37
2022-11-29T07:24:02.226Z,58.10
2022-11-29T07:26:44.145Z,66.70
2022-11-29T07:29:32.696Z,59.17
2022-11-29T07:32:17.062Z,61.80
2022-11-29T07:35:11.001Z,75.13
2022-11-29T07:38:12.262Z,82.37
2022-11-29T07:40:50.760Z,64.73
2022-11-29T07:43:41.677Z,68.57
2022-11-29T07:46:10.640Z,58.03
2022-11-29T07:48:37.446Z,71.83
2022-11-29T07:51:04.836Z,57.60
2022-11-29T07:53:41.662Z,57.77
2022-11-29T07:56:16.435Z,60.80
2022-11-29T07:58:43.988Z,68.23
2022-11-29T08:01:10.893Z,66.83
2022-11-29T08:03:38.087Z,58.50
2022-11-29T08:06:05.186Z,65.13
2022-11-29T08:08:32.281Z,66.90
2022-11-29T08:13:26.435Z,65.05
2022-11-29T08:15:53.218Z,56.40
2022-11-29T08:18:20.414Z,58.47
2022-11-29T08:23:15.762Z,56.67
2022-11-29T08:25:42.694Z,65.80
2022-11-29T08:28:10.042Z,66.00
2022-11-29T08:30:37.282Z,62.57
2022-11-29T08:33:05.178Z,64.23
2022-11-29T08:35:32.724Z,63.03
2022-11-29T08:37:59.864Z,68.90
2022-11-29T08:40:26.942Z,58.83
2022-11-29T08:42:58.747Z,52.97
2022-11-29T08:45:25.889Z,55.33
2022-11-29T08:47:52.681Z,62.33
2022-11-29T08:50:20.134Z,65.70
2022-11-29T08:53:07.313Z,62.07
2022-11-29T08:55:41.047Z,63.60
2022-11-29T08:58:11.010Z,59.77
2022-11-29T09:00:38.749Z,61.37
2022-11-29T09:03:26.119Z,66.53
2022-11-29T09:05:53.431Z,73.25
2022-11-29T09:08:20.480Z,66.07
2022-11-29T09:10:47.690Z,66.63
2022-11-29T09:13:14.617Z,66.87
2022-11-29T09:15:43.555Z,66.63
2022-11-29T09:18:10.624Z,49.10
2022-11-29T09:20:37.563Z,65.97
2022-11-29T09:23:04.713Z,66.63
2022-11-29T09:25:32.376Z,57.30
2022-11-29T09:28:01.957Z,57.70
2022-11-29T09:30:34.911Z,60.43
2022-11-29T09:33:05.350Z,63.03
2022-11-29T09:35:33.248Z,60.83
2022-11-29T09:38:01.204Z,67.00
2022-11-29T09:40:36.492Z,71.07
2022-11-29T09:43:30.116Z,69.10
2022-11-29T09:46:18.349Z,68.17
2022-11-29T09:48:57.865Z,70.45
2022-11-29T09:51:30.170Z,76.53
2022-11-29T09:54:25.018Z,82.33
2022-11-29T09:56:55.607Z,70.10
2022-11-29T09:59:29.125Z,73.23
2022-11-29T10:02:06.587Z,78.53
2022-11-29T10:04:40.670Z,76.90
2022-11-29T10:07:28.449Z,79.55
2022-11-29T10:12:52.583Z,76.28
2022-11-29T10:15:29.053Z,81.88
2022-11-29T10:18:04.661Z,78.75
2022-11-29T10:20:42.437Z,85.63
2022-11-29T10:23:16.760Z,70.32
2022-11-29T10:25:50.246Z,71.97
2022-11-29T10:28:20.973Z,72.60
2022-11-29T10:30:49.499Z,75.20
2022-11-29T10:33:25.781Z,63.58
2022-11-29T10:35:58.023Z,62.05
2022-11-29T10:38:32.649Z,65.28
2022-11-29T10:41:11.771Z,61.88
2022-11-29T10:43:38.989Z,60.40
2022-11-29T10:46:15.772Z,57.80
2022-11-29T10:48:43.049Z,56.72
2022-11-29T10:51:17.319Z,52.17
2022-11-29T10:53:45.889Z,54.10
2022-11-29T10:56:12.610Z,55.55
2022-11-29T10:59:05.402Z,58.63
2022-11-29T11:01:37.478Z,56.75
2022-11-29T11:04:10.260Z,52.35
2022-11-29T11:06:56.439Z,45.60
2022-11-29T11:09:40.976Z,54.80
2022-11-29T11:12:32.820Z,50.50
2022-11-29T11:15:21.170Z,49.40
2022-11-29T11:17:58.971Z,41.75
2022-11-29T11:20:31.379Z,48.30
2022-11-29T11:23:01.775Z,43.08
2022-11-29T11:25:38.455Z,47.92
2022-11-29T11:28:34.884Z,48.17
2022-11-29T11:31:06.482Z,48.13
2022-11-29T11:33:36.583Z,41.05
2022-11-29T11:36:12.038Z,40.47
2022-11-29T11:38:49.336Z,40.08
2022-11-29T11:43:59.935Z,41.30
2022-11-29T11:46:50.522Z,49.05
2022-11-29T11:49:32.392Z,46.63
2022-11-29T11:52:01.290Z,47.30
2022-11-29T11:54:29.619Z,35.10
2022-11-29T11:56:56.828Z,42.72
2022-11-29T11:59:26.764Z,39.28
2022-11-29T12:01:53.935Z,32.88
2022-11-29T12:04:27.700Z,33.47
2022-11-29T12:07:13.660Z,30.63
2022-11-29T12:10:05.519Z,28.35
2022-11-29T12:12:43.389Z,28.60
2022-11-29T12:15:24.485Z,32.80
2022-11-29T12:18:14.562Z,33.70
2022-11-29T12:20:50.348Z,25.05
2022-11-29T12:23:39.825Z,28.90
2022-11-29T12:26:34.513Z,30.70
2022-11-29T12:29:01.869Z,24.25
2022-11-29T12:31:43.696Z,32.22
2022-11-29T12:34:22.457Z,27.05
2022-11-29T12:36:55.853Z,27.83
2022-11-29T12:39:45.215Z,32.63
2022-11-29T12:42:17.660Z,32.95
2022-11-29T12:44:50.476Z,26.83
2022-11-29T12:47:51.907Z,26.70
2022-11-29T12:51:01.776Z,29.88
2022-11-29T12:53:40.847Z,33.30
2022-11-29T12:56:14.034Z,25.92
2022-11-29T12:59:07.615Z,25.70
2022-11-29T13:01:44.779Z,24.98
2022-11-29T13:04:22.403Z,28.40
2022-11-29T13:07:07.691Z,25.50
2022-11-29T13:09:40.049Z,26.10
2022-11-29T13:12:33.126Z,26.02
2022-11-29T13:15:07.075Z,26.38
2022-11-29T13:17:50.139Z,29.67
2022-11-29T13:20:40.304Z,29.25
2022-11-29T13:23:46.190Z,30.02
2022-11-29T13:26:25.629Z,33.30
2022-11-29T13:28:53.049Z,26.42
2022-11-29T13:31:22.014Z,25.02
2022-11-29T13:34:14.910Z,30.10
2022-11-29T13:37:02.006Z,33.35
2022-11-29T13:40:01.460Z,25.45
2022-11-29T13:42:52.324Z,27.98
2022-11-29T13:45:47.459Z,24.90
2022-11-29T13:48:35.164Z,27.00
2022-11-29T13:51:39.030Z,23.02
2022-11-29T13:54:25.176Z,22.05
2022-11-29T13:57:09.369Z,29.25
2022-11-29T13:59:44.261Z,26.40
2022-11-29T14:02:30.500Z,20.98
2022-11-29T14:04:57.747Z,26.83
2022-11-29T14:07:24.640Z,22.38
2022-11-29T14:10:02.596Z,25.73
2022-11-29T14:12:42.118Z,23.75
2022-11-29T14:15:26.727Z,26.15
2022-11-29T14:18:08.256Z,21.38
2022-11-29T14:20:44.073Z,29.05
2022-11-29T14:23:16.757Z,29.88
2022-11-29T14:25:58.841Z,29.88
2022-11-29T14:28:32.825Z,27.98
2022-11-29T14:31:03.962Z,26.38
2022-11-29T14:33:58.179Z,33.05
2022-11-29T14:36:50.266Z,29.75
2022-11-29T14:39:47.053Z,26.38
2022-11-29T14:42:18.837Z,32.95
2022-11-29T14:45:21.099Z,34.92
2022-11-29T14:47:49.314Z,36.38
2022-11-29T14:50:33.139Z,31.42
2022-11-29T14:53:01.306Z,33.03
2022-11-29T14:55:37.293Z,30.88
2022-11-29T14:58:20.733Z,33.08
2022-11-29T15:00:47.935Z,25.08
2022-11-29T15:05:50.204Z,34.25
2022-11-29T15:09:02.095Z,34.03
2022-11-29T15:11:54.592Z,40.05
2022-11-29T15:14:37.015Z,30.90
2022-11-29T15:17:22.987Z,39.42
2022-11-29T15:19:55.583Z,35.63
2022-11-29T15:22:29.683Z,32.40
2022-11-29T15:25:21.350Z,44.13
2022-11-29T15:27:59.123Z,26.55
2022-11-29T15:30:29.615Z,29.70
2022-11-29T15:33:01.553Z,29.27
2022-11-29T15:35:29.151Z,29.35
2022-11-29T15:37:56.764Z,30.75
2022-11-29T15:40:32.140Z,29.77
2022-11-29T15:43:22.420Z,29.83
2022-11-29T15:45:55.889Z,33.08
2022-11-29T15:48:28.950Z,36.42
2022-11-29T15:51:18.658Z,31.30
2022-11-29T15:54:00.411Z,32.53
2022-11-29T15:56:50.169Z,33.13
2022-11-29T15:59:31.626Z,41.25
2022-11-29T16:02:02.859Z,35.92
2022-11-29T16:04:30.390Z,34.50
2022-11-29T16:06:58.369Z,34.35
2022-11-29T16:09:48.208Z,33.85
2022-11-29T16:12:18.055Z,34.35
2022-11-29T16:14:56.628Z,35.58
2022-11-29T16:17:30.303Z,32.33
2022-11-29T16:20:16.670Z,41.30
2022-11-29T16:22:43.780Z,47.53
2022-11-29T16:25:19.590Z,42.35
2022-11-29T16:27:48.022Z,56.55
2022-11-29T16:30:23.112Z,69.60
2022-11-29T16:32:55.712Z,58.75
2022-11-29T16:35:26.487Z,59.80
2022-11-29T16:37:54.789Z,58.03
2022-11-29T16:40:31.853Z,63.95
2022-11-29T16:43:23.622Z,59.53
2022-11-29T16:46:26.830Z,51.05
2022-11-29T16:48:56.658Z,51.10
2022-11-29T16:51:32.523Z,47.92
2022-11-29T16:54:20.672Z,78.72
2022-11-29T16:56:48.417Z,106.70
2022-11-29T16:59:25.421Z,128.80
2022-11-29T17:01:55.213Z,116.38
2022-11-29T17:04:24.015Z,115.03
2022-11-29T17:06:56.383Z,96.30
2022-11-29T17:09:28.762Z,97.25
2022-11-29T17:11:56.633Z,91.07
2022-11-29T17:14:23.559Z,92.20
2022-11-29T17:16:52.318Z,94.47
2022-11-29T17:19:24.136Z,97.50
2022-11-29T17:21:53.039Z,110.97
2022-11-29T17:24:21.697Z,123.25
2022-11-29T17:26:48.963Z,119.13
2022-11-29T17:29:17.599Z,130.38
2022-11-29T17:31:45.665Z,122.22
2022-11-29T17:34:12.703Z,128.65
2022-11-29T17:36:40.887Z,124.00
2022-11-29T17:39:08.043Z,132.80
2022-11-29T17:41:35.274Z,125.10
2022-11-29T17:44:02.897Z,115.55
2022-11-29T17:46:32.510Z,118.60
2022-11-29T17:49:01.217Z,121.82
2022-11-29T17:51:51.126Z,125.80
2022-11-29T17:54:16.826Z,131.48
2022-11-29T17:59:10.871Z,121.28
2022-11-29T18:01:37.769Z,123.95
2022-11-29T18:04:06.737Z,123.30
2022-11-29T18:06:38.990Z,89.75
2022-11-29T18:09:08.724Z,83.70
2022-11-29T18:11:45.250Z,91.70
2022-11-29T18:14:20.161Z,99.05
2022-11-29T18:16:47.503Z,116.15
2022-11-29T18:19:17.931Z,123.55
2022-11-29T18:21:45.784Z,134.20
2022-11-29T18:24:12.630Z,130.80
2022-11-29T18:26:40.383Z,147.00
2022-11-29T18:29:08.455Z,157.00
2022-11-29T18:31:38.011Z,139.10
2022-11-29T18:34:07.284Z,139.90
2022-11-29T18:36:37.537Z,148.27
2022-11-29T18:39:08.688Z,169.43
2022-11-29T18:41:36.326Z,176.43
2022-11-29T18:44:11.564Z,173.85
2022-11-29T18:46:41.255Z,188.38
2022-11-29T18:49:10.224Z,246.43
2022-11-29T18:51:38.294Z,212.73
2022-11-29T18:54:06.650Z,191.05
2022-11-29T18:56:35.149Z,257.87
2022-11-29T18:59:05.210Z,280.42
2022-11-29T19:01:41.035Z,155.70
2022-11-29T19:04:11.521Z,159.27
2022-11-29T19:06:39.878Z,156.87
2022-11-29T19:09:11.846Z,146.15
2022-11-29T19:11:39.348Z,142.90
2022-11-29T19:14:11.773Z,160.32
2022-11-29T19:16:42.402Z,149.77
2022-11-29T19:19:09.842Z,144.50
2022-11-29T19:21:36.881Z,105.50
2022-11-29T19:24:07.997Z,82.15
2022-11-29T19:26:35.393Z,85.27
2022-11-29T19:29:02.289Z,110.43
2022-11-29T19:31:30.105Z,97.27
2022-11-29T19:33:58.049Z,72.43
2022-11-29T19:36:30.662Z,78.47
2022-11-29T19:39:00.683Z,84.73
2022-11-29T19:41:33.629Z,76.67
2022-11-29T19:44:04.125Z,74.60
2022-11-29T19:46:43.445Z,77.37
2022-11-29T19:49:11.666Z,81.20
2022-11-29T19:51:38.699Z,83.73
2022-11-29T19:54:08.421Z,84.30
2022-11-29T19:56:35.323Z,87.57
2022-11-29T19:59:02.823Z,78.47
2022-11-29T20:01:39.219Z,71.53
2022-11-29T20:04:07.602Z,92.53
2022-11-29T20:06:34.802Z,119.30
2022-11-29T20:09:02.308Z,117.47
2022-11-29T20:11:29.207Z,122.37
2022-11-29T20:14:02.664Z,120.53
2022-11-29T20:16:31.178Z,126.60
2022-11-29T20:18:58.718Z,123.05
2022-11-29T20:21:34.123Z,131.53
2022-11-29T20:24:06.372Z,131.73
2022-11-29T20:26:39.623Z,121.97
2022-11-29T20:29:08.454Z,124.20
2022-11-29T20:31:37.136Z,124.40
2022-11-29T20:34:07.563Z,124.00
2022-11-29T20:36:47.112Z,125.17
2022-11-29T20:39:33.181Z,132.20
2022-11-29T20:42:19.117Z,124.67
2022-11-29T20:44:55.235Z,131.30
2022-11-29T20:47:27.259Z,131.40
2022-11-29T20:49:55.226Z,145.47
2022-11-29T20:52:34.150Z,144.87
2022-11-29T20:55:01.521Z,142.03
2022-11-29T20:57:28.751Z,138.70
2022-11-29T20:59:56.400Z,141.27
2022-11-29T21:02:23.605Z,126.27
2022-11-29T21:04:51.064Z,88.80
2022-11-29T21:07:18.033Z,73.30
2022-11-29T21:09:45.808Z,66.83
2022-11-29T21:12:13.199Z,56.67
2022-11-29T21:14:40.719Z,64.53
2022-11-29T21:17:09.189Z,66.40
2022-11-29T21:19:36.942Z,67.23
2022-11-29T21:22:16.439Z,75.87
2022-11-29T21:25:05.336Z,74.23
2022-11-29T21:27:35.107Z,73.10
2022-11-29T21:30:05.955Z,67.43
2022-11-29T21:32:33.605Z,76.87
2022-11-29T21:35:00.766Z,62.83
2022-11-29T21:37:30.704Z,72.90
2022-11-29T21:39:57.691Z,73.97
2022-11-29T21:42:25.534Z,78.07
2022-11-29T21:44:52.314Z,56.47
2022-11-29T21:47:19.550Z,72.80
2022-11-29T21:49:47.103Z,74.27
2022-11-29T21:52:20.712Z,86.60
2022-11-29T21:54:49.940Z,87.63
2022-11-29T21:57:16.753Z,108.83
2022-11-29T21:59:43.795Z,145.53
2022-11-29T22:04:38.121Z,130.82
2022-11-29T22:07:04.996Z,190.57
2022-11-29T22:09:32.416Z,197.27
2022-11-29T22:11:59.169Z,238.13
2022-11-29T22:14:26.390Z,315.07
2022-11-29T22:19:29.756Z,210.00
2022-11-29T22:22:05.716Z,241.20
2022-11-29T22:24:35.332Z,284.00
2022-11-29T22:27:02.524Z,251.27
2022-11-29T22:29:30.341Z,391.93
2022-11-29T22:31:59.398Z,341.27
2022-11-29T22:34:28.044Z,402.23
2022-11-29T22:36:57.260Z,277.00
2022-11-29T22:39:24.595Z,247.43
2022-11-29T22:41:54.755Z,208.20
2022-11-29T22:44:26.156Z,198.23
2022-11-29T22:46:53.453Z,190.47
2022-11-29T22:49:27.180Z,157.43
2022-11-29T22:51:55.162Z,181.43
2022-11-29T22:54:22.230Z,147.02
2022-11-29T22:56:49.525Z,136.27
2022-11-29T22:59:16.419Z,140.10
2022-11-29T23:01:44.151Z,148.60
2022-11-29T23:04:13.010Z,141.47
2022-11-29T23:06:44.742Z,154.97
2022-11-29T23:09:20.143Z,157.80
2022-11-29T23:11:52.069Z,151.93
2022-11-29T23:14:20.013Z,177.53
2022-11-29T23:16:47.348Z,196.00
2022-11-29T23:19:16.337Z,234.47
2022-11-29T23:21:45.764Z,182.87
2022-11-29T23:24:15.278Z,206.20
2022-11-29T23:26:45.637Z,215.68
2022-11-29T23:29:15.164Z,189.20
2022-11-29T23:31:43.255Z,206.23
2022-11-29T23:34:10.633Z,262.73
2022-11-29T23:36:37.461Z,248.63
2022-11-29T23:39:08.517Z,237.00
2022-11-29T23:41:38.651Z,243.83
2022-11-29T23:44:06.175Z,216.13
2022-11-29T23:46:35.280Z,222.13
2022-11-29T23:49:02.157Z,215.68
2022-11-29T23:51:29.641Z,225.27
2022-11-29T23:56:23.713Z,251.18
2022-11-29T23:58:50.642Z,258.93
